Historyczne dane pomiarowe

Dodano dane terminowe – wersja testowa.

Dane z okresu 1951-2019

Wersja bazy: 1.34 [2019-03-16, lista zmian], aktualizacja planowana na 2019-04-15

Dane meteo z obszaru Polski uzyskane na podstawie danych udostępnionych przez Instytut Meteorologii i Gospodarki Wodnej – Państwowy Instytut Badawczy.

 

Wybierz Datę:    

       

TemperaturaWilgotnośćWiatrCiśnienieOpadyŚniegCzas trwania zjawisk
 Stacja t tx tn tng RH VA  wxwx mslp ppp RRR   cm mm wxwxwxwxwxwxwx
2017-01-17 -2.5 0.0 -5.3-11.1 89.5 4.5- 1.1--1027.0- 0.0--x- 0.2-------
2017-01-18 -3.2 -1.9 -6.0 -8.9 85.4 4.1- 1.1--1032.2- 0.0--x- 0.0-------
2017-01-19 -5.8 -4.2 -7.6 -7.5 86.7 3.4- 1.6--1030.7- 0.0--x- 2.0-------
2017-01-20 -1.9 0.9 -4.8 -5.3 74.7 4.0- 2.0--1027.1- 0.1--x- 0.0-------
2017-01-21 -0.1 2.0 -1.7 -3.2 89.9 5.5- 1.5--1024.5- 0.0--x- 0.0-------
2017-01-22 -3.1 -0.8 -8.2-11.4 92.6 4.5- 2.3--1020.4- 0.0--x- 4.9-------
2017-01-23 -6.7 -3.1-10.2-12.8 89.5 3.3- 1.9--1016.9- 0.0--x- 5.1-------
2017-01-24 -2.9 -1.7 -4.3 -4.3 94.3 4.7- 2.0--1019.8- 0.0--x- 0.0-------
2017-01-25 -0.6 0.1 -1.8 -1.9 98.3 5.7- 1.2--1023.6- 0.0--x- 0.0-------
2017-01-26 -0.4 2.3 -4.5 -9.5 86.5 5.1- 2.2--1023.0- 0.0--x- 2.6-------
2017-01-27 -2.4 4.0 -7.6-11.4 73.9 3.7- 2.0--1016.8- 0.0--x- 7.3-------
2017-01-28 -4.1 0.6 -8.2-12.3 75.5 3.4- 2.3--1013.1- 0.0--x- 7.3-------
2017-01-29 -0.7 6.0 -5.4 -9.7 74.8 4.3- 2.1--1013.7- 0.0--x- 7.3-------
2017-01-30 -0.4 3.3 -3.9 -7.1 77.0 4.5- 3.2--1008.6- 3.8--x- 0.1-------
2017-01-31 -0.6 0.2 -1.2 -2.2 83.5 4.9- 2.0--1007.9- 0.3--x- 0.0-------
2017-02-01 -1.5 1.3 -6.7-12.7 87.7 4.8- 1.6--1012.7- 0.0--x- 2.1-------
2017-02-02 -2.4 1.5 -7.4-13.2 91.1 4.8- 2.0--1006.5- 1.5--x- 3.5-------
2017-02-03 1.1 3.9 -1.4 -2.4 95.4 6.3- 2.1--1000.1- 1.9--x- 0.2-------
2017-02-04 3.4 9.8 -0.2 -2.2 91.5 7.1- 1.8-- 997.3- 0.0--x- 5.8-------
2017-02-05 2.6 4.8 0.8 0.6 97.1 7.2- 1.8-- 996.9- 0.4--x- 0.0-------
2017-02-06 -1.0 0.8 -1.8 -2.0 92.2 5.3- 2.6--1009.6- 0.3--x- 0.0-------
2017-02-07 -1.3 -0.6 -2.6 -2.7 81.1 4.5- 2.8--1014.9- 0.0--x- 0.0-------
2017-02-08 -4.0 -2.6 -4.8 -4.9 73.2 3.3- 3.3--1020.4- 0.0--x- 0.0-------
2017-02-09 -4.7 -2.8 -7.1 -8.1 74.2 3.2- 3.4--1024.2- 0.0--x- 3.5-------
2017-02-10 -2.4 1.0 -5.8 -6.6 75.1 3.8- 4.1--1019.8- 0.0--x- 5.6-------
2017-02-11 -2.1 -1.0 -3.4 -3.8 66.3 3.5- 4.0--1018.9- 0.0--x- 0.1-------
2017-02-12 -2.3 -0.8 -5.0 -6.2 69.9 3.6- 3.5--1024.8- 0.0--x- 0.0-------
2017-02-13 -3.6 2.6 -7.8 -9.1 77.8 3.6- 2.7--1028.5- 0.0--x- 8.2-------
2017-02-14 -2.9 3.8 -6.9 -6.7 83.6 4.1- 2.2--1027.5- 0.0--x- 5.8-------
2017-02-15 2.0 14.7 -4.6 -6.9 69.8 4.5- 1.2--1025.8- 0.0--x- 8.6-------
178.6 ms

 

Źródłem pochodzenia danych jest Instytut Meteorologii i Gospodarki Wodnej – Państwowy Instytut Badawczy. Dane Instytutu Meteorologii i Gospodarki Wodnej – Państwowego Instytutu Badawczego zostały przetworzone.

Dane źródłowe można odnaleźć na stronie https://dane.imgw.pl